Time;durP1;ratioP1;P1;durP2;ratioP2;P2;SDS_P1;SDS_P2;PMS_P1;PMS_P2;Temp;Humidity;BMP_temperature;BMP_pressure;BME280_temperature;BME280_humidity;BME280_pressure;Samples;Min_cycle;Max_cycle;Signal;HPM_P1;HPM_P2
2024/01/03 00:00:34;;;;;;;4.27;2.97;;;12.20;99.90;;;;;;4899011;29;20188;-63
2024/01/03 00:03:00;;;;;;;5.93;3.17;;;12.20;99.90;;;;;;4899656;29;20428;-64
2024/01/03 00:05:37;;;;;;;5.23;3.33;;;12.20;99.90;;;;;;4897343;29;20436;-62
2024/01/03 00:08:14;;;;;;;7.10;3.00;;;12.30;99.90;;;;;;4882489;29;20339;-64
2024/01/03 00:10:42;;;;;;;5.53;3.23;;;12.30;99.90;;;;;;4889032;29;20442;-63
2024/01/03 00:13:44;;;;;;;5.87;2.80;;;12.40;99.90;;;;;;4882789;29;20468;-64
2024/01/03 00:16:18;;;;;;;4.63;2.80;;;12.30;99.90;;;;;;4883685;29;20426;-63
2024/01/03 00:18:51;;;;;;;8.90;3.50;;;12.30;99.90;;;;;;4891280;29;20774;-63
2024/01/03 00:21:25;;;;;;;3.13;2.83;;;12.30;99.90;;;;;;4890322;29;20517;-63
2024/01/03 00:24:00;;;;;;;5.30;2.97;;;12.30;99.90;;;;;;4891704;29;20429;-63
2024/01/03 00:26:28;;;;;;;7.20;3.20;;;12.30;99.90;;;;;;4893203;29;20440;-64
2024/01/03 00:28:55;;;;;;;5.83;3.00;;;12.40;99.90;;;;;;4877964;29;21067;-65
2024/01/03 00:31:37;;;;;;;4.10;2.90;;;12.30;99.90;;;;;;4889730;29;20429;-64
2024/01/03 00:34:22;;;;;;;5.17;2.90;;;12.40;99.90;;;;;;4900414;29;20447;-64
2024/01/03 00:36:51;;;;;;;3.60;3.07;;;12.30;99.90;;;;;;4893629;29;20421;-63
2024/01/03 00:39:26;;;;;;;7.63;3.73;;;12.20;99.90;;;;;;4875726;29;20525;-64
2024/01/03 00:41:53;;;;;;;7.83;3.77;;;12.20;99.90;;;;;;4894421;29;20444;-64
2024/01/03 00:44:18;;;;;;;5.00;3.23;;;12.20;99.90;;;;;;4873273;29;20431;-63
2024/01/03 00:46:44;;;;;;;5.87;3.37;;;12.20;99.90;;;;;;4885384;29;20491;-63
2024/01/03 00:49:11;;;;;;;4.90;3.13;;;12.20;99.90;;;;;;4886233;29;20643;-63
2024/01/03 00:51:37;;;;;;;4.57;3.23;;;12.20;99.90;;;;;;4890613;29;20435;-60
2024/01/03 00:54:03;;;;;;;5.23;3.60;;;12.20;99.90;;;;;;4885872;29;20459;-63
2024/01/03 00:56:29;;;;;;;10.90;3.90;;;12.20;99.90;;;;;;4886415;29;20464;-64
2024/01/03 00:58:56;;;;;;;3.83;3.37;;;12.20;99.90;;;;;;4881186;29;21088;-64
2024/01/03 01:01:21;;;;;;;5.53;3.50;;;12.20;99.90;;;;;;4885330;29;20447;-63
2024/01/03 01:03:48;;;;;;;4.90;3.00;;;12.20;99.90;;;;;;4882665;29;20429;-63
2024/01/03 01:06:14;;;;;;;4.60;3.07;;;12.20;99.90;;;;;;4899117;29;20942;-64
2024/01/03 01:08:39;;;;;;;4.10;2.83;;;12.20;99.90;;;;;;4882037;29;20427;-60
2024/01/03 01:11:05;;;;;;;4.57;3.27;;;12.20;99.90;;;;;;4891043;29;20426;-63
2024/01/03 01:13:31;;;;;;;4.40;3.20;;;12.10;99.90;;;;;;4884316;29;20656;-63
2024/01/03 01:15:57;;;;;;;4.43;3.20;;;12.00;99.90;;;;;;4889240;29;20190;-63
2024/01/03 01:18:22;;;;;;;4.70;3.23;;;12.10;99.90;;;;;;4899214;29;20538;-63
2024/01/03 01:20:48;;;;;;;6.57;3.47;;;12.10;99.90;;;;;;4892659;29;20199;-62
2024/01/03 01:23:14;;;;;;;9.20;3.27;;;12.00;99.90;;;;;;4897384;29;20181;-63
2024/01/03 01:25:40;;;;;;;6.63;3.80;;;12.00;99.90;;;;;;4897320;29;20219;-60
2024/01/03 01:28:05;;;;;;;3.40;2.93;;;12.00;99.90;;;;;;4893781;29;20960;-63
2024/01/03 01:30:31;;;;;;;7.50;3.90;;;12.00;99.90;;;;;;4895090;29;20175;-63
2024/01/03 01:32:57;;;;;;;4.13;3.37;;;12.00;99.90;;;;;;4891421;29;20272;-63
2024/01/03 01:35:22;;;;;;;10.73;3.50;;;11.90;99.90;;;;;;4878248;29;20559;-63
2024/01/03 01:37:48;;;;;;;5.13;3.30;;;11.90;99.90;;;;;;4886157;29;20268;-63
2024/01/03 01:40:14;;;;;;;4.63;3.53;;;11.90;99.90;;;;;;4890634;29;20283;-64
2024/01/03 01:42:44;;;;;;;8.80;3.40;;;11.90;99.90;;;;;;4881725;29;20188;-60
2024/01/03 01:45:10;;;;;;;6.50;3.40;;;11.90;99.90;;;;;;4882787;29;20231;-63
2024/01/03 01:47:40;;;;;;;4.40;4.10;;;11.80;99.90;;;;;;4873329;29;20426;-63
2024/01/03 01:50:08;;;;;;;8.20;3.53;;;11.80;99.90;;;;;;4890805;29;20451;-64
2024/01/03 01:52:34;;;;;;;4.90;3.83;;;11.80;99.90;;;;;;4885653;29;20469;-63
2024/01/03 01:55:00;;;;;;;5.33;3.73;;;11.80;99.90;;;;;;4863227;29;20711;-63
2024/01/03 01:57:29;;;;;;;6.13;3.40;;;11.80;99.90;;;;;;4883138;29;20838;-63
2024/01/03 01:59:55;;;;;;;5.50;3.43;;;11.70;99.90;;;;;;4871882;29;20519;-63
2024/01/03 02:02:21;;;;;;;4.07;3.77;;;11.70;99.90;;;;;;4895953;29;20486;-64
2024/01/03 02:04:48;;;;;;;3.87;3.50;;;11.70;99.90;;;;;;4897313;29;20419;-63
2024/01/03 02:07:14;;;;;;;5.43;3.30;;;11.70;99.90;;;;;;4897012;29;20427;-64
2024/01/03 02:09:42;;;;;;;5.67;3.30;;;11.70;99.90;;;;;;4894404;29;20518;-60
2024/01/03 02:12:08;;;;;;;6.67;3.93;;;11.70;99.90;;;;;;4887440;29;20427;-63
2024/01/03 02:14:34;;;;;;;7.83;3.37;;;11.70;99.90;;;;;;4890511;29;20792;-63
2024/01/03 02:17:00;;;;;;;4.80;3.70;;;11.80;99.90;;;;;;4890037;29;20438;-63
2024/01/03 02:19:26;;;;;;;6.60;3.60;;;11.80;99.90;;;;;;4873158;29;20432;-64
2024/01/03 02:21:51;;;;;;;3.70;3.40;;;11.80;99.90;;;;;;4897664;29;20420;-64
2024/01/03 02:24:18;;;;;;;8.63;3.20;;;11.80;99.90;;;;;;4896787;29;20320;-63
2024/01/03 02:26:44;;;;;;;5.30;2.87;;;11.80;99.90;;;;;;4895326;29;20643;-59
2024/01/03 02:29:09;;;;;;;4.23;2.97;;;11.70;99.90;;;;;;4894776;29;20494;-63
2024/01/03 02:31:35;;;;;;;6.77;2.90;;;11.70;99.90;;;;;;4888161;29;20270;-64
2024/01/03 02:34:01;;;;;;;6.00;3.40;;;11.70;99.90;;;;;;4891205;29;20208;-63
2024/01/03 02:36:27;;;;;;;4.63;3.10;;;11.80;99.90;;;;;;4879737;29;20192;-64
2024/01/03 02:38:53;;;;;;;6.03;3.50;;;11.80;99.90;;;;;;4893830;29;20272;-63
2024/01/03 02:41:19;;;;;;;3.77;3.40;;;11.80;99.90;;;;;;4881132;29;20430;-64
2024/01/03 02:43:45;;;;;;;4.07;3.07;;;11.80;99.90;;;;;;4895063;29;20926;-60
2024/01/03 02:46:10;;;;;;;4.00;3.10;;;11.80;99.90;;;;;;4893992;29;20190;-64
2024/01/03 02:48:40;;;;;;;5.30;4.57;;;11.80;99.90;;;;;;4887716;29;20184;-64
2024/01/03 02:51:05;;;;;;;6.90;3.57;;;11.70;99.90;;;;;;4880315;29;20283;-63
2024/01/03 02:53:31;;;;;;;3.53;3.23;;;11.70;99.90;;;;;;4890576;29;20558;-64
2024/01/03 02:55:58;;;;;;;3.50;3.30;;;11.70;99.90;;;;;;4878684;29;20703;-63
2024/01/03 02:58:23;;;;;;;4.23;3.53;;;11.70;99.90;;;;;;4886549;29;20447;-63
2024/01/03 03:00:49;;;;;;;4.23;3.67;;;11.80;99.90;;;;;;4878853;29;20506;-63
2024/01/03 03:03:15;;;;;;;4.57;3.40;;;11.80;99.90;;;;;;4885681;29;20179;-64
2024/01/03 03:05:41;;;;;;;3.50;3.20;;;11.80;99.90;;;;;;4892631;29;20197;-64
2024/01/03 03:08:06;;;;;;;5.57;3.10;;;11.80;99.90;;;;;;4880986;29;20691;-64
2024/01/03 03:10:32;;;;;;;3.10;2.90;;;11.80;99.90;;;;;;4890931;29;20182;-65
2024/01/03 03:12:58;;;;;;;5.07;3.37;;;11.90;99.90;;;;;;4895778;29;20226;-63
2024/01/03 03:15:24;;;;;;;3.50;2.80;;;11.90;99.90;;;;;;4886443;29;20435;-64
2024/01/03 03:17:49;;;;;;;3.67;3.20;;;11.90;99.90;;;;;;4876773;29;20176;-63
2024/01/03 03:20:15;;;;;;;3.63;2.93;;;11.90;99.90;;;;;;4891701;29;20184;-64
2024/01/03 03:22:41;;;;;;;5.03;3.17;;;11.80;99.90;;;;;;4880821;29;20193;-63
2024/01/03 03:25:07;;;;;;;5.70;2.70;;;11.80;99.90;;;;;;4880112;29;20186;-64
2024/01/03 03:27:33;;;;;;;3.27;2.97;;;11.90;99.90;;;;;;4888414;29;20224;-63
2024/01/03 03:29:58;;;;;;;2.70;2.50;;;11.90;99.90;;;;;;4883687;29;20889;-62
2024/01/03 03:32:24;;;;;;;8.50;3.13;;;11.80;99.90;;;;;;4897446;29;20297;-63
2024/01/03 03:34:52;;;;;;;4.60;2.90;;;11.80;99.90;;;;;;4897002;29;20179;-62
2024/01/03 03:37:18;;;;;;;3.27;2.70;;;11.80;99.90;;;;;;4897566;29;20184;-63
2024/01/03 03:39:44;;;;;;;3.87;2.70;;;11.80;99.90;;;;;;4897504;29;20560;-59
2024/01/03 03:42:10;;;;;;;3.20;2.83;;;11.90;99.90;;;;;;4897775;29;20410;-62
2024/01/03 03:44:40;;;;;;;6.20;2.73;;;11.90;99.90;;;;;;4897395;29;20419;-63
2024/01/03 03:47:06;;;;;;;3.03;2.40;;;11.90;99.90;;;;;;4896720;29;20639;-62
2024/01/03 03:49:32;;;;;;;3.67;3.30;;;12.00;99.90;;;;;;4897459;29;20420;-63
2024/01/03 03:51:57;;;;;;;5.37;3.07;;;12.00;99.90;;;;;;4896301;29;20175;-63
2024/01/03 03:54:23;;;;;;;6.00;2.77;;;12.00;99.90;;;;;;4872578;29;20477;-64
2024/01/03 03:56:49;;;;;;;3.10;2.90;;;12.10;99.90;;;;;;4879628;29;20225;-60
2024/01/03 03:59:15;;;;;;;2.53;2.33;;;12.10;99.90;;;;;;4890899;29;20271;-63
2024/01/03 04:01:48;;;;;;;3.13;2.83;;;11.90;99.90;;;;;;4887747;29;20710;-63
2024/01/03 04:04:14;;;;;;;3.50;2.80;;;12.00;99.90;;;;;;4879025;29;20184;-64
2024/01/03 04:06:42;;;;;;;3.50;3.20;;;12.00;99.90;;;;;;4891867;29;20438;-64
2024/01/03 04:09:10;;;;;;;4.80;2.77;;;12.00;99.90;;;;;;4890411;29;20194;-63
2024/01/03 04:11:43;;;;;;;4.77;3.10;;;12.00;99.90;;;;;;4893765;29;20843;-63
2024/01/03 04:14:10;;;;;;;3.13;2.50;;;12.00;99.90;;;;;;4873153;29;21084;-63
2024/01/03 04:16:36;;;;;;;4.40;3.00;;;11.90;99.90;;;;;;4878700;29;20430;-64
2024/01/03 04:19:02;;;;;;;3.10;2.77;;;12.00;99.90;;;;;;4889902;29;20785;-63
2024/01/03 04:21:31;;;;;;;3.20;2.90;;;12.00;99.90;;;;;;4881636;29;20419;-63
2024/01/03 04:23:57;;;;;;;2.50;2.30;;;12.00;99.90;;;;;;4878183;29;20853;-63
2024/01/03 04:26:23;;;;;;;2.70;2.50;;;12.00;99.90;;;;;;4887057;29;20437;-63
2024/01/03 04:28:49;;;;;;;3.13;2.47;;;12.00;99.90;;;;;;4885612;29;20421;-60
2024/01/03 04:31:15;;;;;;;4.17;3.10;;;12.00;99.90;;;;;;4886345;29;20430;-63
2024/01/03 04:33:41;;;;;;;4.00;2.73;;;12.00;99.90;;;;;;4888230;29;20509;-64
2024/01/03 04:36:09;;;;;;;5.13;3.10;;;12.00;99.90;;;;;;4884667;29;20769;-63
2024/01/03 04:38:35;;;;;;;3.47;3.17;;;11.90;99.90;;;;;;4866876;29;20179;-64
2024/01/03 04:41:01;;;;;;;3.10;2.90;;;11.80;99.90;;;;;;4888199;29;20987;-63
2024/01/03 04:43:26;;;;;;;7.00;3.10;;;11.80;99.90;;;;;;4887476;29;20674;-64
2024/01/03 04:45:52;;;;;;;3.17;2.70;;;11.80;99.90;;;;;;4868268;29;20633;-63
2024/01/03 04:48:18;;;;;;;3.30;3.00;;;11.80;99.90;;;;;;4889520;29;20195;-64
2024/01/03 04:50:44;;;;;;;5.10;3.20;;;11.80;99.90;;;;;;4897740;29;20187;-64
2024/01/03 04:53:10;;;;;;;5.33;2.70;;;11.80;99.90;;;;;;4895900;29;21075;-64
2024/01/03 04:55:36;;;;;;;5.03;2.90;;;11.70;99.90;;;;;;4884071;29;20579;-63
2024/01/03 04:58:02;;;;;;;9.50;3.00;;;11.80;99.90;;;;;;4898769;29;20447;-64
2024/01/03 05:00:28;;;;;;;3.60;3.30;;;11.80;99.90;;;;;;4896798;29;20187;-64
2024/01/03 05:02:56;;;;;;;4.33;3.20;;;11.80;99.90;;;;;;4897243;29;20527;-61
2024/01/03 05:05:22;;;;;;;3.13;2.90;;;11.80;99.90;;;;;;4898864;29;20187;-64
2024/01/03 05:07:47;;;;;;;11.13;3.60;;;11.80;99.90;;;;;;4885476;29;20430;-64
2024/01/03 05:10:13;;;;;;;3.37;3.10;;;11.90;99.90;;;;;;4889279;29;20581;-63
2024/01/03 05:12:39;;;;;;;4.27;3.10;;;11.80;99.90;;;;;;4864593;29;20253;-64
2024/01/03 05:15:05;;;;;;;3.47;3.17;;;11.90;99.90;;;;;;4895512;29;20179;-63
2024/01/03 05:17:31;;;;;;;2.93;2.73;;;11.90;99.90;;;;;;4879979;29;20538;-64
2024/01/03 05:19:57;;;;;;;2.93;2.70;;;11.80;99.90;;;;;;4873110;29;20435;-63
2024/01/03 05:22:23;;;;;;;3.20;2.30;;;11.80;99.90;;;;;;4869409;29;20427;-64
2024/01/03 05:24:49;;;;;;;3.73;2.87;;;11.80;99.90;;;;;;4897875;29;20435;-64
2024/01/03 05:27:15;;;;;;;4.57;3.27;;;11.80;99.90;;;;;;4895626;29;20857;-64
2024/01/03 05:29:41;;;;;;;5.93;2.90;;;11.90;99.90;;;;;;4898685;29;20191;-64
2024/01/03 05:32:07;;;;;;;5.17;2.93;;;11.90;99.90;;;;;;4896714;29;20430;-62
2024/01/03 05:34:33;;;;;;;4.80;2.87;;;11.90;99.90;;;;;;4890454;29;20432;-63
2024/01/03 05:36:59;;;;;;;5.10;2.60;;;12.00;99.90;;;;;;4882536;29;20180;-63
2024/01/03 05:39:25;;;;;;;4.70;3.03;;;12.00;99.90;;;;;;4888376;29;20654;-64
2024/01/03 05:41:51;;;;;;;2.83;2.53;;;12.00;99.90;;;;;;4890047;29;20179;-64
2024/01/03 05:44:17;;;;;;;2.87;2.77;;;12.00;99.90;;;;;;4895521;29;20443;-63
2024/01/03 05:46:42;;;;;;;3.20;2.90;;;12.00;99.90;;;;;;4889577;29;20637;-64
2024/01/03 05:49:08;;;;;;;2.70;2.50;;;12.00;99.90;;;;;;4888831;29;20179;-63
2024/01/03 05:51:34;;;;;;;5.87;3.20;;;12.00;99.90;;;;;;4896088;29;20191;-64
2024/01/03 05:54:00;;;;;;;3.67;2.50;;;12.00;99.90;;;;;;4896265;29;20299;-63
2024/01/03 05:56:27;;;;;;;2.80;2.53;;;12.00;99.90;;;;;;4890897;29;20227;-64
2024/01/03 05:58:53;;;;;;;3.40;2.47;;;12.00;99.90;;;;;;4889848;29;20469;-61
2024/01/03 06:01:19;;;;;;;3.50;3.20;;;12.00;99.90;;;;;;4886683;29;20452;-63
2024/01/03 06:03:46;;;;;;;3.37;3.00;;;12.00;99.90;;;;;;4897103;29;20635;-64
2024/01/03 06:06:12;;;;;;;3.83;2.83;;;12.00;99.90;;;;;;4876892;29;20585;-63
2024/01/03 06:08:38;;;;;;;2.73;2.57;;;12.00;99.90;;;;;;4892243;29;20440;-64
2024/01/03 06:11:04;;;;;;;3.60;3.17;;;12.00;99.90;;;;;;4887736;29;20428;-64
2024/01/03 06:13:29;;;;;;;6.77;3.40;;;12.00;99.90;;;;;;4890258;29;20208;-64
2024/01/03 06:15:55;;;;;;;3.40;2.67;;;12.00;99.90;;;;;;4879955;29;20226;-64
2024/01/03 06:18:23;;;;;;;3.47;2.40;;;12.00;99.90;;;;;;4877979;29;20183;-64
2024/01/03 06:20:49;;;;;;;3.70;2.70;;;12.00;99.90;;;;;;4883999;29;20188;-64
2024/01/03 06:23:15;;;;;;;4.83;2.80;;;12.00;99.90;;;;;;4879636;29;20415;-64
2024/01/03 06:25:41;;;;;;;3.13;2.47;;;12.00;99.90;;;;;;4863560;29;20661;-64
2024/01/03 06:28:06;;;;;;;5.43;3.10;;;12.00;99.90;;;;;;4892790;29;20188;-64
2024/01/03 06:30:34;;;;;;;5.67;3.47;;;12.00;99.90;;;;;;4893721;29;20975;-64
2024/01/03 06:32:59;;;;;;;4.70;3.23;;;11.90;99.90;;;;;;4881390;29;20894;-63
2024/01/03 06:35:25;;;;;;;5.00;3.00;;;11.90;99.90;;;;;;4886144;29;20435;-64
2024/01/03 06:37:51;;;;;;;5.77;3.00;;;11.90;99.90;;;;;;4879922;29;20207;-64
2024/01/03 06:40:17;;;;;;;3.00;2.80;;;11.90;99.90;;;;;;4880203;29;20177;-64
2024/01/03 06:42:42;;;;;;;10.83;4.00;;;11.90;99.90;;;;;;4891085;29;20185;-64
2024/01/03 06:45:08;;;;;;;5.40;3.53;;;11.80;99.90;;;;;;4879190;29;20578;-64
2024/01/03 06:47:34;;;;;;;8.50;3.50;;;11.80;99.90;;;;;;4887178;29;20175;-64
2024/01/03 06:50:00;;;;;;;2.37;2.27;;;11.80;99.90;;;;;;4897776;29;20426;-63
2024/01/03 06:52:26;;;;;;;5.43;3.10;;;11.80;99.90;;;;;;4896537;29;20203;-64
2024/01/03 06:54:51;;;;;;;3.50;2.80;;;11.80;99.90;;;;;;4885693;29;20268;-63
2024/01/03 06:57:17;;;;;;;3.77;2.97;;;11.70;99.90;;;;;;4879913;29;20175;-63
2024/01/03 06:59:43;;;;;;;3.57;2.60;;;11.80;99.90;;;;;;4880403;29;20697;-65
2024/01/03 07:02:08;;;;;;;5.33;2.90;;;11.80;99.90;;;;;;4893623;29;20193;-63
2024/01/03 07:04:34;;;;;;;4.07;3.10;;;11.80;99.90;;;;;;4898177;29;20603;-63
2024/01/03 07:07:00;;;;;;;3.27;3.03;;;11.80;99.90;;;;;;4897525;29;20180;-63
2024/01/03 07:09:26;;;;;;;3.40;2.90;;;11.80;99.90;;;;;;4897967;29;20176;-63
2024/01/03 07:11:53;;;;;;;3.93;2.60;;;11.80;99.90;;;;;;4881238;29;20886;-63
2024/01/03 07:14:19;;;;;;;5.00;3.00;;;11.80;99.90;;;;;;4892923;29;20498;-61
2024/01/03 07:16:44;;;;;;;3.53;2.87;;;11.80;99.90;;;;;;4863444;29;20467;-63
2024/01/03 07:19:11;;;;;;;2.60;2.50;;;11.80;99.90;;;;;;4886296;29;20194;-63
2024/01/03 07:21:36;;;;;;;2.83;2.50;;;11.80;99.90;;;;;;4870815;29;20547;-63
2024/01/03 07:24:02;;;;;;;2.70;2.50;;;11.80;99.90;;;;;;4884092;29;20448;-62
2024/01/03 07:26:28;;;;;;;3.83;2.93;;;11.70;99.90;;;;;;4883015;29;20187;-62
2024/01/03 07:28:54;;;;;;;4.70;2.70;;;11.70;99.90;;;;;;4880346;29;20427;-63
2024/01/03 07:31:20;;;;;;;3.17;2.50;;;11.70;99.90;;;;;;4896935;29;20416;-63
2024/01/03 07:33:45;;;;;;;5.00;2.77;;;11.70;99.90;;;;;;4897614;29;20217;-63
2024/01/03 07:36:11;;;;;;;4.63;3.43;;;11.70;99.90;;;;;;4895960;29;20637;-63
2024/01/03 07:38:37;;;;;;;5.53;3.87;;;11.70;99.90;;;;;;4897124;29;20179;-63
2024/01/03 07:41:03;;;;;;;7.07;4.53;;;11.70;99.90;;;;;;4896776;29;20184;-62
2024/01/03 07:43:29;;;;;;;4.20;3.77;;;11.70;99.90;;;;;;4880727;29;20654;-63
2024/01/03 07:45:55;;;;;;;3.90;3.60;;;11.80;99.90;;;;;;4896064;29;20191;-63
2024/01/03 07:48:21;;;;;;;5.80;4.40;;;11.70;99.90;;;;;;4892075;29;20433;-63
2024/01/03 07:50:47;;;;;;;8.87;3.90;;;11.80;99.90;;;;;;4884171;29;20483;-63
2024/01/03 07:53:13;;;;;;;7.63;3.33;;;11.80;99.90;;;;;;4895885;29;20217;-63
2024/01/03 07:55:39;;;;;;;8.10;3.40;;;11.80;99.90;;;;;;4878139;29;20470;-63
2024/01/03 07:58:04;;;;;;;7.17;3.93;;;11.80;99.90;;;;;;4879008;29;20182;-63
2024/01/03 08:00:30;;;;;;;6.40;3.50;;;11.80;99.90;;;;;;4892983;29;20236;-63
2024/01/03 08:02:57;;;;;;;4.60;3.90;;;11.80;99.90;;;;;;4890581;29;20631;-63
2024/01/03 08:05:23;;;;;;;7.00;3.43;;;11.80;99.90;;;;;;4888776;29;20431;-63
2024/01/03 08:07:49;;;;;;;3.37;2.70;;;11.80;99.90;;;;;;4888089;29;20429;-64
2024/01/03 08:10:16;;;;;;;4.17;3.87;;;11.80;99.90;;;;;;4879032;29;20429;-67
2024/01/03 08:12:41;;;;;;;11.10;4.87;;;11.80;99.90;;;;;;4870695;29;20519;-64
2024/01/03 08:15:07;;;;;;;4.77;3.00;;;11.80;99.90;;;;;;4898600;29;20482;-64
2024/01/03 08:17:33;;;;;;;7.23;3.43;;;11.80;99.90;;;;;;4900920;29;20195;-66
2024/01/03 08:20:00;;;;;;;6.00;3.47;;;11.90;99.90;;;;;;4896366;29;20419;-63
2024/01/03 08:22:26;;;;;;;5.23;3.43;;;12.00;99.90;;;;;;4877888;29;20450;-64
2024/01/03 08:24:52;;;;;;;3.90;3.47;;;12.00;99.90;;;;;;4882755;29;20551;-64
2024/01/03 08:27:18;;;;;;;7.13;3.37;;;11.90;99.90;;;;;;4885072;29;20959;-61
2024/01/03 08:29:44;;;;;;;6.07;3.40;;;11.90;99.90;;;;;;4889072;29;20429;-63
2024/01/03 08:32:10;;;;;;;4.33;3.40;;;12.00;99.90;;;;;;4899549;29;20197;-63
2024/01/03 08:34:36;;;;;;;5.87;4.23;;;12.00;99.90;;;;;;4897476;29;20465;-63
2024/01/03 08:37:01;;;;;;;4.60;4.20;;;12.00;99.90;;;;;;4879632;29;20184;-63
2024/01/03 08:39:27;;;;;;;4.23;3.50;;;11.90;99.90;;;;;;4895228;29;20537;-63
2024/01/03 08:41:54;;;;;;;3.10;2.90;;;11.80;99.90;;;;;;4895901;29;20623;-66
2024/01/03 08:44:20;;;;;;;3.53;3.23;;;11.70;99.90;;;;;;4891989;29;20257;-67
2024/01/03 08:46:46;;;;;;;5.37;3.80;;;11.60;99.90;;;;;;4897997;29;20491;-61
2024/01/03 08:49:12;;;;;;;4.13;3.77;;;11.90;99.90;;;;;;4882307;29;20441;-61
2024/01/03 08:51:38;;;;;;;9.40;3.80;;;12.20;99.90;;;;;;4893296;29;20858;-61
2024/01/03 08:54:04;;;;;;;4.07;3.77;;;12.50;99.90;;;;;;4896752;29;20483;-61
2024/01/03 08:56:30;;;;;;;5.93;3.53;;;12.90;99.90;;;;;;4900547;29;20996;-61
2024/01/03 08:58:56;;;;;;;5.30;4.33;;;13.00;99.90;;;;;;4898330;29;20189;-61
2024/01/03 09:01:23;;;;;;;4.10;3.53;;;13.10;99.90;;;;;;4882252;29;20190;-61
2024/01/03 09:03:49;;;;;;;5.20;4.23;;;13.20;99.90;;;;;;4896852;29;20183;-61
2024/01/03 09:06:22;;;;;;;5.00;3.50;;;13.40;99.90;;;;;;4895203;29;20510;-60
2024/01/03 09:08:50;;;;;;;4.47;4.17;;;13.50;99.90;;;;;;4896798;29;20951;-61
2024/01/03 09:11:23;;;;;;;4.23;3.80;;;13.70;99.90;;;;;;4886049;29;20417;-60
2024/01/03 09:13:49;;;;;;;4.20;3.80;;;13.90;99.90;;;;;;4900089;29;20460;-61
2024/01/03 09:16:18;;;;;;;5.63;3.80;;;14.10;99.90;;;;;;4899518;29;20439;-61
2024/01/03 09:18:46;;;;;;;4.20;3.70;;;14.20;99.90;;;;;;4900054;29;20175;-61
2024/01/03 09:21:12;;;;;;;4.20;3.90;;;14.30;99.90;;;;;;4898752;29;20419;-60
2024/01/03 09:23:38;;;;;;;8.30;4.13;;;14.40;99.90;;;;;;4898247;29;20458;-61
2024/01/03 09:26:07;;;;;;;4.77;4.40;;;14.40;99.90;;;;;;4898963;29;20903;-61
2024/01/03 09:28:34;;;;;;;3.33;3.00;;;14.40;99.90;;;;;;4878910;29;20893;-60
2024/01/03 09:31:06;;;;;;;4.10;3.73;;;14.50;99.90;;;;;;4889413;29;20425;-61
2024/01/03 09:33:32;;;;;;;3.97;3.70;;;14.40;99.90;;;;;;4898176;29;20468;-60
2024/01/03 09:35:58;;;;;;;5.67;3.47;;;14.50;99.90;;;;;;4894784;29;20439;-60
2024/01/03 09:38:24;;;;;;;4.33;3.43;;;14.50;99.90;;;;;;4896251;29;20193;-60
2024/01/03 09:40:50;;;;;;;7.13;3.80;;;14.60;99.90;;;;;;4887540;29;20180;-62
2024/01/03 09:43:17;;;;;;;4.67;4.20;;;14.60;99.90;;;;;;4876926;29;20210;-61
2024/01/03 09:45:43;;;;;;;6.30;3.57;;;14.60;99.90;;;;;;4885484;29;20428;-65
2024/01/03 09:48:09;;;;;;;7.73;4.10;;;14.60;99.90;;;;;;4878053;29;20432;-61
2024/01/03 09:50:35;;;;;;;5.20;3.87;;;14.50;99.90;;;;;;4878913;29;20196;-60
2024/01/03 09:53:03;;;;;;;8.00;5.20;;;14.20;99.90;;;;;;4882844;29;20471;-60
2024/01/03 09:55:29;;;;;;;10.20;5.70;;;14.20;99.90;;;;;;4869395;29;20658;-61
2024/01/03 09:57:55;;;;;;;7.60;4.80;;;14.20;99.90;;;;;;4868703;29;20440;-60
2024/01/03 10:00:23;;;;;;;6.23;5.13;;;14.20;99.90;;;;;;4885567;29;20760;-60
2024/01/03 10:02:50;;;;;;;9.20;3.77;;;14.30;99.90;;;;;;4887670;29;20426;-67
2024/01/03 10:05:19;;;;;;;4.60;3.70;;;14.30;99.90;;;;;;4892798;29;20475;-65
2024/01/03 10:07:45;;;;;;;5.13;3.30;;;14.00;99.90;;;;;;4899216;29;20506;-66
2024/01/03 10:10:11;;;;;;;6.53;3.60;;;13.70;99.90;;;;;;4898625;29;20971;-65
2024/01/03 10:12:37;;;;;;;4.40;3.00;;;13.40;99.90;;;;;;4899008;29;20553;-65
2024/01/03 10:15:16;;;;;;;4.33;3.93;;;13.30;99.90;;;;;;4881960;29;20205;-66
2024/01/03 10:17:43;;;;;;;9.40;4.23;;;13.00;99.90;;;;;;4892259;29;20466;-67
2024/01/03 10:20:29;;;;;;;2.97;2.70;;;12.80;99.90;;;;;;4868273;29;20503;-66
2024/01/03 10:23:19;;;;;;;6.00;2.83;;;12.70;99.90;;;;;;4889040;29;20851;-66
2024/01/03 10:25:45;;;;;;;7.90;3.20;;;12.60;99.90;;;;;;4897157;29;20500;-65
2024/01/03 10:28:13;;;;;;;6.90;2.93;;;12.50;99.90;;;;;;4893388;29;20437;-60
2024/01/03 10:30:39;;;;;;;4.27;2.93;;;12.40;99.90;;;;;;4897709;29;20423;-65
2024/01/03 10:33:06;;;;;;;3.60;2.93;;;12.30;99.90;;;;;;4896680;29;20460;-66
2024/01/03 10:35:37;;;;;;;5.43;3.10;;;12.20;99.90;;;;;;4883971;29;20440;-65
2024/01/03 10:38:04;;;;;;;3.30;3.00;;;12.20;99.90;;;;;;4890870;29;20437;-65
2024/01/03 10:40:36;;;;;;;6.60;3.67;;;12.30;99.90;;;;;;4897983;29;20412;-66
2024/01/03 10:43:04;;;;;;;4.93;3.30;;;12.20;99.90;;;;;;4898345;29;20766;-66
2024/01/03 10:45:30;;;;;;;3.77;3.37;;;12.20;99.90;;;;;;4897516;29;20503;-66
2024/01/03 10:47:57;;;;;;;5.20;3.90;;;12.20;99.90;;;;;;4881667;29;20421;-66
2024/01/03 10:50:23;;;;;;;3.17;2.97;;;12.20;99.90;;;;;;4881029;29;20830;-66
2024/01/03 10:52:55;;;;;;;3.30;2.83;;;12.20;99.90;;;;;;4898146;29;20463;-66
2024/01/03 10:55:27;;;;;;;3.87;3.07;;;12.20;99.90;;;;;;4897632;29;20228;-66
2024/01/03 10:58:12;;;;;;;4.97;3.77;;;12.30;99.90;;;;;;4898294;29;20493;-66
2024/01/03 11:01:00;;;;;;;4.53;4.27;;;12.50;99.90;;;;;;4897966;29;20484;-66
2024/01/03 11:03:28;;;;;;;7.10;4.50;;;12.60;99.90;;;;;;4880544;29;20460;-66
2024/01/03 11:06:19;;;;;;;4.67;3.40;;;12.80;99.90;;;;;;4897764;29;20508;-66
2024/01/03 11:08:57;;;;;;;8.20;3.43;;;13.00;99.90;;;;;;4897424;29;20786;-66
2024/01/03 11:11:32;;;;;;;6.70;4.17;;;13.00;99.90;;;;;;4896758;29;20437;-66
2024/01/03 11:13:59;;;;;;;4.80;2.90;;;13.00;99.90;;;;;;4897888;29;20518;-67
2024/01/03 11:16:36;;;;;;;14.00;3.30;;;12.90;99.90;;;;;;4897050;29;20419;-66
2024/01/03 11:19:04;;;;;;;4.80;3.43;;;12.80;99.90;;;;;;4881094;29;20789;-67
2024/01/03 11:21:34;;;;;;;6.47;3.67;;;12.70;99.90;;;;;;4897300;29;20442;-68
2024/01/03 11:24:01;;;;;;;3.97;3.53;;;12.70;99.90;;;;;;4897895;29;20898;-68
2024/01/03 11:26:52;;;;;;;4.07;3.47;;;12.80;99.90;;;;;;4880803;29;20418;-66
2024/01/03 11:29:36;;;;;;;3.77;3.23;;;12.80;99.90;;;;;;4897103;29;20422;-67
2024/01/03 11:32:04;;;;;;;7.53;3.53;;;12.70;99.90;;;;;;4897691;29;20577;-67
2024/01/03 11:34:44;;;;;;;5.23;3.53;;;12.80;99.90;;;;;;4897067;29;20469;-66
2024/01/03 11:37:18;;;;;;;4.50;3.33;;;12.70;99.90;;;;;;4879109;29;20430;-66
2024/01/03 11:39:46;;;;;;;8.50;3.93;;;12.70;99.90;;;;;;4879720;29;20439;-67
2024/01/03 11:42:25;;;;;;;4.40;3.50;;;12.70;99.90;;;;;;4897032;29;20894;-65
2024/01/03 11:45:11;;;;;;;7.07;4.03;;;12.60;99.90;;;;;;4897510;29;20425;-67
2024/01/03 11:47:45;;;;;;;4.70;3.30;;;12.60;99.90;;;;;;4897226;29;20456;-67
2024/01/03 11:50:15;;;;;;;6.73;3.60;;;12.60;99.90;;;;;;4897843;29;20406;-67
2024/01/03 11:52:51;;;;;;;10.37;4.00;;;12.50;99.90;;;;;;4897267;29;20465;-66
2024/01/03 11:55:18;;;;;;;6.30;3.83;;;12.50;99.90;;;;;;4895348;29;21020;-66
2024/01/03 11:57:46;;;;;;;8.77;4.33;;;12.40;99.90;;;;;;4878922;29;20434;-67
2024/01/03 12:00:17;;;;;;;6.07;3.83;;;12.40;99.90;;;;;;4894291;29;20426;-67
2024/01/03 12:02:53;;;;;;;6.80;4.10;;;12.40;99.90;;;;;;4880491;29;20426;-67
2024/01/03 12:05:21;;;;;;;12.70;4.20;;;12.30;99.90;;;;;;4896546;29;20919;-66
2024/01/03 12:07:48;;;;;;;8.30;3.93;;;12.30;99.90;;;;;;4895961;29;20445;-66
2024/01/03 12:10:14;;;;;;;8.40;4.07;;;12.40;99.90;;;;;;4896823;29;20497;-61
2024/01/03 12:12:40;;;;;;;4.23;3.53;;;12.40;99.90;;;;;;4897312;29;20586;-67
2024/01/03 12:15:06;;;;;;;3.40;3.13;;;12.40;99.90;;;;;;4880492;29;20497;-67
2024/01/03 12:17:33;;;;;;;8.70;3.33;;;12.50;99.90;;;;;;4896959;29;20231;-67
2024/01/03 12:20:13;;;;;;;6.97;3.40;;;12.60;99.90;;;;;;4897188;29;20407;-67
2024/01/03 12:22:39;;;;;;;7.03;3.27;;;12.60;99.90;;;;;;4897242;29;20423;-67
2024/01/03 12:25:05;;;;;;;6.93;3.73;;;12.50;99.90;;;;;;4897261;29;20422;-66
2024/01/03 12:27:33;;;;;;;4.73;3.20;;;12.60;99.90;;;;;;4895683;29;20942;-67
2024/01/03 12:30:18;;;;;;;6.80;3.60;;;12.60;99.90;;;;;;4897225;29;20984;-68
2024/01/03 12:32:46;;;;;;;9.87;3.10;;;12.60;99.90;;;;;;4897288;29;20458;-67
2024/01/03 12:35:12;;;;;;;6.00;3.00;;;12.60;99.90;;;;;;4897125;29;20552;-67
2024/01/03 12:37:46;;;;;;;4.33;3.33;;;12.50;99.90;;;;;;4896553;29;20835;-67
2024/01/03 12:40:13;;;;;;;9.20;3.20;;;12.50;99.90;;;;;;4897522;29;20422;-67
2024/01/03 12:42:40;;;;;;;10.63;3.23;;;12.50;99.90;;;;;;4896491;29;20411;-67
2024/01/03 12:45:06;;;;;;;4.00;2.57;;;12.50;99.90;;;;;;4897069;29;20417;-67
2024/01/03 12:47:32;;;;;;;3.33;2.57;;;12.50;99.90;;;;;;4893798;29;20445;-67